Time;durP1;ratioP1;P1;durP2;ratioP2;P2;SDS_P1;SDS_P2;PMS_P1;PMS_P2;Temp;Humidity;BMP_temperature;BMP_pressure;BME280_temperature;BME280_humidity;BME280_pressure;Samples;Min_cycle;Max_cycle;Signal;HPM_P1;HPM_P2
2023/05/11 00:02:17;;;;;;;8.10;4.38;;;;;;;;;;4938813;28;20055;-72
2023/05/11 00:04:43;;;;;;;7.25;4.13;;;;;;;;;;4931348;28;20118;-72
2023/05/11 00:07:08;;;;;;;7.63;4.38;;;;;;;;;;4933156;28;21053;-70
2023/05/11 00:09:34;;;;;;;6.45;3.92;;;;;;;;;;4926743;28;20109;-68
2023/05/11 00:12:00;;;;;;;10.93;4.47;;;;;;;;;;4937019;28;20046;-74
2023/05/11 00:14:25;;;;;;;8.95;4.68;;;;;;;;;;4927301;28;20053;-73
2023/05/11 00:16:51;;;;;;;7.45;3.85;;;;;;;;;;4932450;28;20044;-70
2023/05/11 00:19:16;;;;;;;6.15;3.10;;;;;;;;;;4937326;28;20126;-70
2023/05/11 00:21:41;;;;;;;6.25;3.75;;;;;;;;;;4931212;28;20042;-69
2023/05/11 00:24:07;;;;;;;7.28;3.78;;;;;;;;;;4937950;28;20039;-68
2023/05/11 00:26:32;;;;;;;5.68;3.15;;;;;;;;;;4933082;28;20531;-75
2023/05/11 00:28:58;;;;;;;6.55;3.33;;;;;;;;;;4923529;28;20126;-69
2023/05/11 00:31:24;;;;;;;5.20;2.97;;;;;;;;;;4934650;28;20043;-69
2023/05/11 00:33:49;;;;;;;5.63;2.75;;;;;;;;;;4940043;28;20035;-71
2023/05/11 00:36:15;;;;;;;6.10;3.42;;;;;;;;;;4929376;28;20050;-69
2023/05/11 00:38:40;;;;;;;4.50;3.03;;;;;;;;;;4940107;28;20530;-68
2023/05/11 00:41:07;;;;;;;5.68;3.88;;;;;;;;;;4938754;28;20504;-71
2023/05/11 00:43:33;;;;;;;6.47;3.80;;;;;;;;;;4931880;28;20045;-69
2023/05/11 00:45:58;;;;;;;7.10;3.42;;;;;;;;;;4932439;28;20039;-70
2023/05/11 00:48:24;;;;;;;6.03;3.78;;;;;;;;;;4931574;28;20045;-67
2023/05/11 00:50:49;;;;;;;7.32;3.97;;;;;;;;;;4924537;28;20042;-68
2023/05/11 00:53:15;;;;;;;6.53;3.85;;;;;;;;;;4937438;28;20051;-71
2023/05/11 00:55:41;;;;;;;6.47;3.83;;;;;;;;;;4939918;28;20051;-67
2023/05/11 00:58:07;;;;;;;6.15;3.58;;;;;;;;;;4914747;28;20056;-73
2023/05/11 01:00:32;;;;;;;8.23;3.55;;;;;;;;;;4935256;28;20145;-72
2023/05/11 01:02:59;;;;;;;7.82;4.80;;;;;;;;;;4936190;28;20171;-71
2023/05/11 01:05:32;;;;;;;6.63;4.30;;;;;;;;;;4928426;28;20039;-71
2023/05/11 01:08:06;;;;;;;8.13;4.10;;;;;;;;;;4936784;28;20071;-71
2023/05/11 01:10:48;;;;;;;7.15;3.65;;;;;;;;;;4918793;28;20139;-71
2023/05/11 01:13:26;;;;;;;;;;;;;;;;;;4939500;28;20031;-74
2023/05/11 01:15:55;;;;;;;6.28;3.38;;;;;;;;;;4918697;28;19973;-71
2023/05/11 01:18:31;;;;;;;7.75;4.55;;;;;;;;;;4934539;28;20042;-68
2023/05/11 01:21:01;;;;;;;6.85;3.65;;;;;;;;;;4929492;28;20063;-69
2023/05/11 01:23:45;;;;;;;6.30;4.07;;;;;;;;;;4929077;28;20442;-70
2023/05/11 01:26:22;;;;;;;6.68;3.95;;;;;;;;;;4927456;28;20114;-69
2023/05/11 01:29:25;;;;;;;6.85;3.63;;;;;;;;;;4943457;28;20760;-70
2023/05/11 01:31:54;;;;;;;6.38;3.67;;;;;;;;;;4922339;28;20047;-67
2023/05/11 01:34:24;;;;;;;6.53;3.65;;;;;;;;;;4923717;28;20167;-70
2023/05/11 01:37:12;;;;;;;6.78;3.58;;;;;;;;;;4937098;28;20507;-70
2023/05/11 01:40:01;;;;;;;6.75;3.45;;;;;;;;;;4938776;28;20042;-70
2023/05/11 01:42:39;;;;;;;7.97;4.00;;;;;;;;;;4925674;28;20399;-69
2023/05/11 01:45:07;;;;;;;7.20;3.83;;;;;;;;;;4908377;28;20428;-72
2023/05/11 01:47:33;;;;;;;7.28;3.85;;;;;;;;;;4935610;28;20500;-72
2023/05/11 01:50:01;;;;;;;7.20;3.97;;;;;;;;;;4936459;28;20055;-71
2023/05/11 01:52:29;;;;;;;6.93;3.90;;;;;;;;;;4936348;28;20105;-73
2023/05/11 01:54:56;;;;;;;5.97;3.30;;;;;;;;;;4925504;28;20043;-70
2023/05/11 01:57:23;;;;;;;6.00;3.25;;;;;;;;;;4910719;28;20039;-68
2023/05/11 01:59:50;;;;;;;6.95;3.22;;;;;;;;;;4937880;28;20042;-70
2023/05/11 02:02:17;;;;;;;8.50;4.28;;;;;;;;;;4935998;28;20101;-68
2023/05/11 02:04:44;;;;;;;7.15;4.05;;;;;;;;;;4930389;28;20044;-67
2023/05/11 02:07:11;;;;;;;8.77;4.45;;;;;;;;;;4930256;28;20416;-69
2023/05/11 02:09:37;;;;;;;7.32;3.88;;;;;;;;;;4938787;28;20042;-68
2023/05/11 02:12:04;;;;;;;7.95;4.05;;;;;;;;;;4938638;28;20524;-70
2023/05/11 02:14:33;;;;;;;6.35;3.80;;;;;;;;;;4940707;28;20122;-74
2023/05/11 02:17:00;;;;;;;7.70;4.47;;;;;;;;;;4933473;28;20138;-74
2023/05/11 02:19:26;;;;;;;7.15;4.15;;;;;;;;;;4937993;28;20054;-72
2023/05/11 02:21:53;;;;;;;6.43;4.03;;;;;;;;;;4929812;28;20162;-72
2023/05/11 02:24:20;;;;;;;6.90;4.00;;;;;;;;;;4930874;28;20142;-72
2023/05/11 02:26:46;;;;;;;8.45;4.88;;;;;;;;;;4941585;28;20259;-69
2023/05/11 02:29:11;;;;;;;7.68;4.10;;;;;;;;;;4935409;28;20130;-72
2023/05/11 02:31:42;;;;;;;8.20;3.95;;;;;;;;;;4941777;28;20050;-72
2023/05/11 02:34:19;;;;;;;6.35;3.88;;;;;;;;;;4931752;28;20039;-73
2023/05/11 02:36:48;;;;;;;7.50;4.53;;;;;;;;;;4931741;28;20058;-71
2023/05/11 02:39:17;;;;;;;9.80;4.35;;;;;;;;;;4927445;28;20188;-72
2023/05/11 02:41:44;;;;;;;6.60;4.20;;;;;;;;;;4941060;28;20038;-72
2023/05/11 02:44:14;;;;;;;7.18;4.53;;;;;;;;;;4934930;28;20043;-71
2023/05/11 02:46:41;;;;;;;7.97;4.95;;;;;;;;;;4926014;28;20629;-70
2023/05/11 02:49:09;;;;;;;5.93;4.00;;;;;;;;;;4924574;28;20045;-70
2023/05/11 02:51:40;;;;;;;7.38;3.75;;;;;;;;;;4942193;28;20050;-69
2023/05/11 02:54:09;;;;;;;9.07;4.70;;;;;;;;;;4930218;28;20551;-75
2023/05/11 02:56:35;;;;;;;7.45;4.03;;;;;;;;;;4938442;28;20531;-72
2023/05/11 02:59:02;;;;;;;9.50;4.10;;;;;;;;;;4932394;28;20035;-69
2023/05/11 03:01:27;;;;;;;6.75;4.50;;;;;;;;;;4922445;28;20574;-72
2023/05/11 03:03:53;;;;;;;7.50;3.95;;;;;;;;;;4939092;28;20126;-71
2023/05/11 03:06:18;;;;;;;6.65;4.03;;;;;;;;;;4940715;28;21571;-74
2023/05/11 03:08:45;;;;;;;6.10;3.75;;;;;;;;;;4940347;28;20570;-69
2023/05/11 03:11:13;;;;;;;6.97;3.83;;;;;;;;;;4928013;28;20043;-70
2023/05/11 03:13:40;;;;;;;5.93;3.78;;;;;;;;;;4928446;28;20089;-68
2023/05/11 03:16:06;;;;;;;7.68;4.05;;;;;;;;;;4928307;28;20138;-71
2023/05/11 03:18:33;;;;;;;9.32;4.28;;;;;;;;;;4935868;28;20102;-70
2023/05/11 03:20:59;;;;;;;7.50;4.82;;;;;;;;;;4938423;28;20523;-74
2023/05/11 03:23:26;;;;;;;7.97;4.70;;;;;;;;;;4936377;28;20047;-69
2023/05/11 03:25:53;;;;;;;6.90;4.07;;;;;;;;;;4930292;28;20031;-69
2023/05/11 03:28:20;;;;;;;8.75;4.35;;;;;;;;;;4938832;28;20118;-72
2023/05/11 03:30:48;;;;;;;9.32;4.47;;;;;;;;;;4906385;28;20340;-71
2023/05/11 03:33:13;;;;;;;8.30;4.63;;;;;;;;;;4931580;28;20091;-72
2023/05/11 03:35:41;;;;;;;7.53;4.50;;;;;;;;;;4936041;28;20043;-70
2023/05/11 03:38:10;;;;;;;7.20;4.15;;;;;;;;;;4940806;28;20089;-69
2023/05/11 03:40:36;;;;;;;8.70;5.43;;;;;;;;;;4930544;28;20039;-72
2023/05/11 03:43:04;;;;;;;8.13;4.28;;;;;;;;;;4931883;28;20078;-72
2023/05/11 03:45:31;;;;;;;7.38;4.70;;;;;;;;;;4928514;28;20070;-69
2023/05/11 03:47:57;;;;;;;6.95;4.40;;;;;;;;;;4936383;28;20035;-72
2023/05/11 03:50:23;;;;;;;8.80;4.78;;;;;;;;;;4939284;28;20035;-71
2023/05/11 03:52:49;;;;;;;8.90;4.55;;;;;;;;;;4929382;28;20039;-72
2023/05/11 03:55:15;;;;;;;8.07;4.72;;;;;;;;;;4933802;28;20043;-69
2023/05/11 03:57:40;;;;;;;8.90;5.15;;;;;;;;;;4929180;28;20138;-70
2023/05/11 04:00:07;;;;;;;9.60;5.10;;;;;;;;;;4940025;28;20505;-72
2023/05/11 04:02:34;;;;;;;9.32;4.80;;;;;;;;;;4940064;28;20042;-72
2023/05/11 04:04:59;;;;;;;8.05;4.25;;;;;;;;;;4936647;28;20581;-73
2023/05/11 04:07:25;;;;;;;8.93;4.90;;;;;;;;;;4928052;28;20078;-70
2023/05/11 04:09:50;;;;;;;7.70;4.93;;;;;;;;;;4923904;28;20066;-72
2023/05/11 04:12:16;;;;;;;10.13;5.30;;;;;;;;;;4938613;28;20062;-69
2023/05/11 04:14:41;;;;;;;10.15;5.35;;;;;;;;;;4941901;28;20589;-72
2023/05/11 04:17:06;;;;;;;7.85;4.90;;;;;;;;;;4930023;28;20145;-72
2023/05/11 04:19:32;;;;;;;8.00;4.68;;;;;;;;;;4939555;28;20140;-70
2023/05/11 04:21:57;;;;;;;10.18;5.13;;;;;;;;;;4926260;28;20051;-71
2023/05/11 04:24:22;;;;;;;8.93;4.85;;;;;;;;;;4929345;28;20093;-69
2023/05/11 04:26:48;;;;;;;7.38;4.38;;;;;;;;;;4936337;28;20926;-70
2023/05/11 04:29:13;;;;;;;9.07;4.97;;;;;;;;;;4929064;28;20069;-70
2023/05/11 04:31:39;;;;;;;9.75;5.05;;;;;;;;;;4937055;28;20042;-72
2023/05/11 04:34:07;;;;;;;12.15;5.75;;;;;;;;;;4933942;28;20507;-72
2023/05/11 04:36:32;;;;;;;7.85;4.75;;;;;;;;;;4928002;28;20043;-72
2023/05/11 04:38:58;;;;;;;8.10;4.57;;;;;;;;;;4918377;28;20042;-74
2023/05/11 04:41:23;;;;;;;8.70;5.13;;;;;;;;;;4939520;28;20707;-71
2023/05/11 04:43:49;;;;;;;7.82;4.63;;;;;;;;;;4942473;28;20652;-69
2023/05/11 04:46:14;;;;;;;9.60;4.78;;;;;;;;;;4936576;28;20038;-71
2023/05/11 04:48:41;;;;;;;6.85;4.30;;;;;;;;;;4933949;28;20046;-66
2023/05/11 04:51:06;;;;;;;7.65;4.47;;;;;;;;;;4920058;28;20493;-70
2023/05/11 04:53:32;;;;;;;8.00;4.50;;;;;;;;;;4925013;28;20941;-71
2023/05/11 04:55:57;;;;;;;6.65;3.88;;;;;;;;;;4932015;28;20047;-67
2023/05/11 04:58:22;;;;;;;7.25;4.18;;;;;;;;;;4935475;28;20779;-70
2023/05/11 05:00:48;;;;;;;8.77;4.60;;;;;;;;;;4926794;28;20509;-71
2023/05/11 05:03:14;;;;;;;9.27;4.55;;;;;;;;;;4921061;28;20039;-71
2023/05/11 05:05:39;;;;;;;8.77;5.18;;;;;;;;;;4937542;28;20050;-71
2023/05/11 05:08:06;;;;;;;8.40;3.75;;;;;;;;;;4922492;28;20053;-71
2023/05/11 05:10:31;;;;;;;7.95;4.25;;;;;;;;;;4928355;28;20035;-72
2023/05/11 05:12:57;;;;;;;7.28;4.25;;;;;;;;;;4928667;28;20416;-70
2023/05/11 05:15:22;;;;;;;9.00;4.65;;;;;;;;;;4935235;28;20085;-70
2023/05/11 05:17:48;;;;;;;7.22;4.32;;;;;;;;;;4922873;28;20047;-71
2023/05/11 05:20:13;;;;;;;8.40;4.53;;;;;;;;;;4933156;28;20043;-66
2023/05/11 05:22:38;;;;;;;7.35;4.45;;;;;;;;;;4920447;28;20482;-69
2023/05/11 05:25:04;;;;;;;8.18;4.30;;;;;;;;;;4932359;28;20043;-71
2023/05/11 05:27:31;;;;;;;9.80;4.85;;;;;;;;;;4935428;28;20570;-67
2023/05/11 05:29:56;;;;;;;7.72;4.18;;;;;;;;;;4929465;28;20043;-67
2023/05/11 05:32:22;;;;;;;8.65;4.88;;;;;;;;;;4920407;28;20086;-69
2023/05/11 05:34:47;;;;;;;8.00;4.85;;;;;;;;;;4920926;28;20042;-69
2023/05/11 05:37:13;;;;;;;8.93;4.60;;;;;;;;;;4933927;28;20058;-69
2023/05/11 05:39:38;;;;;;;9.30;4.50;;;;;;;;;;4938451;28;20109;-68
2023/05/11 05:42:04;;;;;;;6.95;4.13;;;;;;;;;;4937922;28;20042;-66
2023/05/11 05:44:29;;;;;;;5.72;3.67;;;;;;;;;;4939898;28;20054;-68
2023/05/11 05:46:54;;;;;;;6.72;3.97;;;;;;;;;;4921261;28;20059;-69
2023/05/11 05:49:20;;;;;;;6.68;3.45;;;;;;;;;;4930186;28;20058;-66
2023/05/11 05:51:46;;;;;;;6.57;3.25;;;;;;;;;;4939672;28;20105;-67
2023/05/11 05:54:12;;;;;;;5.80;3.22;;;;;;;;;;4938853;28;20039;-70
2023/05/11 05:56:39;;;;;;;5.78;3.22;;;;;;;;;;4939423;28;20041;-69
2023/05/11 05:59:05;;;;;;;6.47;3.60;;;;;;;;;;4935180;28;20086;-68
2023/05/11 06:01:30;;;;;;;5.13;3.45;;;;;;;;;;4925678;28;20043;-70
2023/05/11 06:03:55;;;;;;;6.07;3.83;;;;;;;;;;4930406;28;20032;-66
2023/05/11 06:06:21;;;;;;;6.60;3.53;;;;;;;;;;4933304;28;20083;-70
2023/05/11 06:08:46;;;;;;;5.18;2.85;;;;;;;;;;4931413;28;20038;-70
2023/05/11 06:11:12;;;;;;;7.03;3.67;;;;;;;;;;4937201;28;20542;-67
2023/05/11 06:13:37;;;;;;;6.93;4.80;;;;;;;;;;4940894;28;20085;-71
2023/05/11 06:16:02;;;;;;;5.05;2.92;;;;;;;;;;4927031;28;20115;-66
2023/05/11 06:18:28;;;;;;;4.65;3.20;;;;;;;;;;4923792;28;20043;-65
2023/05/11 06:20:53;;;;;;;4.57;2.90;;;;;;;;;;4938147;28;20109;-69
2023/05/11 06:23:19;;;;;;;4.50;2.65;;;;;;;;;;4938799;28;20047;-67
2023/05/11 06:25:44;;;;;;;6.00;3.42;;;;;;;;;;4940822;28;20046;-67
2023/05/11 06:28:10;;;;;;;6.70;3.50;;;;;;;;;;4932640;28;20137;-70
2023/05/11 06:30:35;;;;;;;6.38;3.83;;;;;;;;;;4927153;28;20050;-67
2023/05/11 06:33:01;;;;;;;8.18;4.18;;;;;;;;;;4926828;28;20536;-69
2023/05/11 06:35:26;;;;;;;7.13;3.65;;;;;;;;;;4939954;28;20093;-66
2023/05/11 06:37:51;;;;;;;5.70;3.47;;;;;;;;;;4937969;28;20050;-67
2023/05/11 06:40:17;;;;;;;4.80;3.58;;;;;;;;;;4929903;28;20043;-70
2023/05/11 06:42:42;;;;;;;6.93;4.97;;;;;;;;;;4928003;28;20539;-67
2023/05/11 06:45:08;;;;;;;4.68;3.40;;;;;;;;;;4937119;28;20046;-69
2023/05/11 06:47:34;;;;;;;5.70;3.53;;;;;;;;;;4925306;28;20041;-72
2023/05/11 06:49:59;;;;;;;5.00;3.22;;;;;;;;;;4935380;28;20042;-68
2023/05/11 06:52:25;;;;;;;4.60;3.28;;;;;;;;;;4932961;28;20039;-68
2023/05/11 06:54:50;;;;;;;5.13;3.00;;;;;;;;;;4938974;28;20042;-70
2023/05/11 06:57:16;;;;;;;5.65;2.90;;;;;;;;;;4928170;28;20766;-66
2023/05/11 06:59:41;;;;;;;4.00;2.60;;;;;;;;;;4937316;28;20045;-68
2023/05/11 07:02:06;;;;;;;4.60;2.47;;;;;;;;;;4929192;28;20150;-67
2023/05/11 07:04:32;;;;;;;5.38;2.70;;;;;;;;;;4935553;28;20039;-65
2023/05/11 07:06:57;;;;;;;4.28;2.63;;;;;;;;;;4927665;28;20550;-70
2023/05/11 07:09:23;;;;;;;3.53;2.30;;;;;;;;;;4938826;28;20053;-67
2023/05/11 07:11:50;;;;;;;4.45;2.55;;;;;;;;;;4928215;28;20038;-65
2023/05/11 07:14:15;;;;;;;4.25;2.55;;;;;;;;;;4919978;28;20059;-67
2023/05/11 07:16:41;;;;;;;3.47;2.33;;;;;;;;;;4926638;28;20162;-66
2023/05/11 07:19:09;;;;;;;4.10;2.67;;;;;;;;;;4936317;28;20750;-65
2023/05/11 07:21:35;;;;;;;4.32;2.65;;;;;;;;;;4940177;28;20038;-68
2023/05/11 07:24:00;;;;;;;3.97;1.80;;;;;;;;;;4928678;28;20385;-66
2023/05/11 07:26:26;;;;;;;4.10;2.60;;;;;;;;;;4924501;28;20039;-66
2023/05/11 07:28:51;;;;;;;3.35;2.38;;;;;;;;;;4924167;28;20129;-68
2023/05/11 07:31:17;;;;;;;3.17;2.10;;;;;;;;;;4936792;28;20050;-66
2023/05/11 07:33:42;;;;;;;4.05;2.40;;;;;;;;;;4938382;28;20038;-68
2023/05/11 07:36:08;;;;;;;4.25;2.33;;;;;;;;;;4928672;28;20111;-71
2023/05/11 07:38:33;;;;;;;4.28;2.58;;;;;;;;;;4939535;28;20043;-66
2023/05/11 07:40:59;;;;;;;3.13;2.15;;;;;;;;;;4927794;28;20070;-67
2023/05/11 07:43:24;;;;;;;2.67;2.10;;;;;;;;;;4924778;28;20039;-69
2023/05/11 07:45:50;;;;;;;3.33;2.28;;;;;;;;;;4929302;28;20047;-67
2023/05/11 07:48:16;;;;;;;3.20;1.95;;;;;;;;;;4933353;28;20055;-66
2023/05/11 07:50:42;;;;;;;3.50;1.80;;;;;;;;;;4938630;28;20046;-66
2023/05/11 07:53:08;;;;;;;2.53;1.63;;;;;;;;;;4926235;28;20038;-66
2023/05/11 07:55:33;;;;;;;3.03;1.83;;;;;;;;;;4939165;28;20101;-65
2023/05/11 07:57:58;;;;;;;2.78;1.77;;;;;;;;;;4923196;28;20039;-66
2023/05/11 08:00:24;;;;;;;2.42;1.55;;;;;;;;;;4935563;28;20078;-71
2023/05/11 08:02:49;;;;;;;2.75;1.88;;;;;;;;;;4938214;28;20086;-66
2023/05/11 08:05:16;;;;;;;2.65;1.83;;;;;;;;;;4936793;28;20419;-67
2023/05/11 08:07:42;;;;;;;2.78;1.75;;;;;;;;;;4921030;28;20036;-66
2023/05/11 08:10:07;;;;;;;2.28;1.52;;;;;;;;;;4930993;28;20184;-68
2023/05/11 08:12:33;;;;;;;4.47;1.70;;;;;;;;;;4909474;28;20047;-70
2023/05/11 08:14:59;;;;;;;2.85;1.70;;;;;;;;;;4931863;28;20623;-68
2023/05/11 08:17:24;;;;;;;3.22;2.00;;;;;;;;;;4934472;28;20047;-67
2023/05/11 08:19:50;;;;;;;3.10;2.10;;;;;;;;;;4932258;28;20070;-69
2023/05/11 08:22:15;;;;;;;2.50;1.65;;;;;;;;;;4926029;28;20047;-72
2023/05/11 08:24:41;;;;;;;2.50;1.92;;;;;;;;;;4928457;28;20054;-66
2023/05/11 08:27:07;;;;;;;3.33;1.80;;;;;;;;;;4935391;28;20050;-68
2023/05/11 08:29:32;;;;;;;2.78;1.95;;;;;;;;;;4932036;28;20151;-65
2023/05/11 08:31:57;;;;;;;3.20;1.80;;;;;;;;;;4931052;28;20449;-66
2023/05/11 08:34:23;;;;;;;2.85;1.90;;;;;;;;;;4931513;28;20063;-70
2023/05/11 08:36:48;;;;;;;2.10;1.67;;;;;;;;;;4926172;28;20165;-68
2023/05/11 08:39:14;;;;;;;2.97;1.65;;;;;;;;;;4922080;28;20168;-67
2023/05/11 08:41:39;;;;;;;4.72;1.90;;;;;;;;;;4934730;28;20035;-70
2023/05/11 08:44:06;;;;;;;3.28;2.00;;;;;;;;;;4934086;28;20070;-68
2023/05/11 08:46:34;;;;;;;3.03;1.75;;;;;;;;;;4932631;28;20665;-67
2023/05/11 08:49:00;;;;;;;2.22;1.60;;;;;;;;;;4935283;28;20712;-68
2023/05/11 08:51:27;;;;;;;2.20;1.52;;;;;;;;;;4930433;28;20160;-66
2023/05/11 08:53:53;;;;;;;2.72;1.80;;;;;;;;;;4925287;28;20039;-68
2023/05/11 08:56:20;;;;;;;3.08;1.80;;;;;;;;;;4937129;28;20118;-71
2023/05/11 08:58:46;;;;;;;3.33;2.30;;;;;;;;;;4937502;28;20039;-66
2023/05/11 09:01:13;;;;;;;2.92;1.92;;;;;;;;;;4932545;28;20090;-67
2023/05/11 09:03:40;;;;;;;2.75;1.98;;;;;;;;;;4921196;28;20042;-67
2023/05/11 09:06:07;;;;;;;2.80;1.83;;;;;;;;;;4927407;28;20046;-72
2023/05/11 09:08:36;;;;;;;2.92;1.40;;;;;;;;;;4938784;28;20443;-65
2023/05/11 09:11:02;;;;;;;3.50;1.90;;;;;;;;;;4934051;28;20102;-72
2023/05/11 09:13:29;;;;;;;2.50;1.85;;;;;;;;;;4934652;28;20050;-69
2023/05/11 09:15:55;;;;;;;3.75;1.73;;;;;;;;;;4929248;28;20043;-67
2023/05/11 09:18:20;;;;;;;3.10;1.70;;;;;;;;;;4930071;28;20054;-66
2023/05/11 09:20:48;;;;;;;2.80;1.52;;;;;;;;;;4930440;28;20138;-66
2023/05/11 09:23:16;;;;;;;2.22;1.50;;;;;;;;;;4939232;28;20445;-67
2023/05/11 09:25:42;;;;;;;2.05;1.60;;;;;;;;;;4936759;28;20030;-67
2023/05/11 09:28:11;;;;;;;2.20;1.67;;;;;;;;;;4938699;28;20404;-70
2023/05/11 09:30:36;;;;;;;2.20;1.77;;;;;;;;;;4928099;28;20039;-71
2023/05/11 09:33:02;;;;;;;3.15;1.58;;;;;;;;;;4942766;28;20130;-67
2023/05/11 09:35:29;;;;;;;2.25;1.60;;;;;;;;;;4930582;28;21195;-66
2023/05/11 09:38:05;;;;;;;2.03;1.50;;;;;;;;;;4937606;28;20567;-67
2023/05/11 09:40:33;;;;;;;2.55;1.60;;;;;;;;;;4937593;28;20042;-69
2023/05/11 09:42:59;;;;;;;2.55;1.60;;;;;;;;;;4928950;28;20054;-67
2023/05/11 09:45:41;;;;;;;2.33;1.67;;;;;;;;;;4937906;28;20846;-70
2023/05/11 09:48:23;;;;;;;2.40;1.73;;;;;;;;;;4912364;28;20123;-66
2023/05/11 09:50:49;;;;;;;1.55;1.10;;;;;;;;;;4939774;28;20047;-71
2023/05/11 09:53:16;;;;;;;1.98;1.52;;;;;;;;;;4941270;28;20536;-65
2023/05/11 09:55:51;;;;;;;2.17;1.60;;;;;;;;;;4931111;28;20047;-66
2023/05/11 09:58:16;;;;;;;3.00;1.40;;;;;;;;;;4925006;28;20042;-71
2023/05/11 10:00:52;;;;;;;1.67;1.17;;;;;;;;;;4936492;28;20043;-67
2023/05/11 10:03:18;;;;;;;2.75;1.35;;;;;;;;;;4940375;28;20050;-68
2023/05/11 10:06:00;;;;;;;1.70;1.38;;;;;;;;;;4941121;28;20054;-67
2023/05/11 10:08:34;;;;;;;;;;;;;;;;;;4914879;28;20040;-68
2023/05/11 10:11:05;;;;;;;2.55;1.60;;;;;;;;;;4907132;28;19930;-69
2023/05/11 10:13:31;;;;;;;1.63;1.10;;;;;;;;;;4939646;28;20034;-65
2023/05/11 10:15:58;;;;;;;1.83;1.33;;;;;;;;;;4937327;28;20102;-67
2023/05/11 10:18:24;;;;;;;2.47;1.40;;;;;;;;;;4937054;28;20046;-70
2023/05/11 10:20:50;;;;;;;1.73;1.55;;;;;;;;;;4921350;28;20039;-68
2023/05/11 10:23:16;;;;;;;1.38;1.10;;;;;;;;;;4927760;28;20504;-67
2023/05/11 10:25:42;;;;;;;1.60;1.35;;;;;;;;;;4936324;28;20042;-68
2023/05/11 10:28:09;;;;;;;1.85;1.20;;;;;;;;;;4937439;28;20111;-68
2023/05/11 10:30:36;;;;;;;2.90;1.55;;;;;;;;;;4933308;28;20141;-71
2023/05/11 10:33:01;;;;;;;1.15;1.02;;;;;;;;;;4927356;28;20656;-69
2023/05/11 10:35:27;;;;;;;3.03;1.33;;;;;;;;;;4940083;28;20041;-68
2023/05/11 10:37:53;;;;;;;1.50;1.00;;;;;;;;;;4925310;28;20039;-66
2023/05/11 10:40:19;;;;;;;2.10;1.00;;;;;;;;;;4934140;28;20047;-65
2023/05/11 10:43:12;;;;;;;0.70;0.70;;;;;;;;;;4935450;28;20035;-69
2023/05/11 10:45:50;;;;;;;1.38;0.98;;;;;;;;;;4923477;28;20570;-71
2023/05/11 10:48:28;;;;;;;0.70;0.60;;;;;;;;;;4911186;28;20042;-66
2023/05/11 10:51:30;;;;;;;2.70;1.70;;;;;;;;;;4936959;28;20070;-67
2023/05/11 10:53:56;;;;;;;1.67;1.27;;;;;;;;;;4916865;28;20046;-67
2023/05/11 10:56:48;;;;;;;2.05;1.20;;;;;;;;;;4935971;28;20039;-67
2023/05/11 10:59:44;;;;;;;0.98;0.80;;;;;;;;;;4912203;28;20457;-69
2023/05/11 11:02:10;;;;;;;1.80;1.23;;;;;;;;;;4926831;28;20066;-67
2023/05/11 11:04:41;;;;;;;3.47;2.90;;;;;;;;;;4935844;28;20066;-69
2023/05/11 11:07:07;;;;;;;2.30;1.50;;;;;;;;;;4929385;28;20036;-66
2023/05/11 11:09:55;;;;;;;2.85;1.60;;;;;;;;;;4928438;28;20130;-67
2023/05/11 11:12:22;;;;;;;3.20;1.90;;;;;;;;;;4925291;28;20038;-68
2023/05/11 11:14:57;;;;;;;5.07;3.42;;;;;;;;;;4932635;28;20047;-68
2023/05/11 11:17:30;;;;;;;5.32;3.33;;;;;;;;;;4933748;28;20047;-68
2023/05/11 11:20:08;;;;;;;6.60;4.88;;;;;;;;;;4929379;28;20051;-66
2023/05/11 11:22:34;;;;;;;5.38;4.20;;;;;;;;;;4941959;28;20042;-65
2023/05/11 11:25:10;;;;;;;6.57;4.05;;;;;;;;;;4932608;28;20471;-69
2023/05/11 11:27:41;;;;;;;5.72;3.90;;;;;;;;;;4934880;28;20041;-71
2023/05/11 11:30:17;;;;;;;4.53;3.25;;;;;;;;;;4926140;28;20045;-66
2023/05/11 11:32:42;;;;;;;6.63;4.35;;;;;;;;;;4932920;28;20050;-67
2023/05/11 11:35:38;;;;;;;6.88;4.50;;;;;;;;;;4943470;28;20439;-71
2023/05/11 11:38:17;;;;;;;6.28;4.45;;;;;;;;;;4917697;28;20055;-70
2023/05/11 11:40:46;;;;;;;9.27;6.00;;;;;;;;;;4928743;28;20043;-69
2023/05/11 11:43:22;;;;;;;8.32;6.15;;;;;;;;;;4935819;28;20480;-67
2023/05/11 11:45:53;;;;;;;8.48;6.18;;;;;;;;;;4934996;28;20039;-68
2023/05/11 11:48:30;;;;;;;8.52;5.45;;;;;;;;;;4923112;28;20455;-68
2023/05/11 11:51:09;;;;;;;7.90;5.78;;;;;;;;;;4927584;28;20047;-68
2023/05/11 11:53:42;;;;;;;11.20;7.57;;;;;;;;;;4932719;28;20093;-66
2023/05/11 11:56:14;;;;;;;8.98;7.35;;;;;;;;;;4938573;28;20506;-67
2023/05/11 11:58:43;;;;;;;8.57;7.15;;;;;;;;;;4917693;28;20056;-66
2023/05/11 12:01:16;;;;;;;11.18;7.40;;;;;;;;;;4920601;28;20042;-70
2023/05/11 12:03:45;;;;;;;10.45;7.75;;;;;;;;;;4900578;28;20055;-66
2023/05/11 12:06:12;;;;;;;11.20;8.10;;;;;;;;;;4930278;28;20031;-67
2023/05/11 12:08:39;;;;;;;9.68;7.55;;;;;;;;;;4939098;28;20072;-68
2023/05/11 12:11:06;;;;;;;11.40;8.52;;;;;;;;;;4924267;28;20042;-66
2023/05/11 12:13:32;;;;;;;12.85;8.45;;;;;;;;;;4934066;28;20047;-70
2023/05/11 12:16:15;;;;;;;12.20;8.43;;;;;;;;;;4919916;28;20043;-67
2023/05/11 12:18:49;;;;;;;15.32;9.23;;;;;;;;;;4928202;28;20054;-68
2023/05/11 12:21:23;;;;;;;12.07;8.93;;;;;;;;;;4927954;28;20039;-67
2023/05/11 12:24:14;;;;;;;12.13;8.48;;;;;;;;;;4921265;28;20043;-69
2023/05/11 12:26:40;;;;;;;13.43;9.15;;;;;;;;;;4906274;28;20116;-65
2023/05/11 12:29:13;;;;;;;11.35;9.10;;;;;;;;;;4929280;28;20114;-71
2023/05/11 12:31:45;;;;;;;14.00;9.50;;;;;;;;;;4936029;28;20202;-66
2023/05/11 12:34:24;;;;;;;13.02;9.32;;;;;;;;;;4909255;28;20055;-66
2023/05/11 12:36:51;;;;;;;12.57;9.02;;;;;;;;;;4902706;28;20147;-68
2023/05/11 12:39:17;;;;;;;13.50;10.23;;;;;;;;;;4935329;28;20054;-71
2023/05/11 12:41:42;;;;;;;11.40;9.50;;;;;;;;;;4936565;28;20535;-70
2023/05/11 12:44:08;;;;;;;12.98;9.30;;;;;;;;;;4930917;28;20058;-65
2023/05/11 12:46:33;;;;;;;12.57;9.23;;;;;;;;;;4926211;28;20531;-71
2023/05/11 12:48:59;;;;;;;13.65;10.43;;;;;;;;;;4929519;28;20551;-69
2023/05/11 12:51:44;;;;;;;13.90;10.60;;;;;;;;;;4927623;28;20165;-69
2023/05/11 12:54:10;;;;;;;13.00;10.93;;;;;;;;;;4938828;28;20039;-70
2023/05/11 12:56:46;;;;;;;13.30;10.70;;;;;;;;;;4940656;28;20035;-68
2023/05/11 12:59:30;;;;;;;13.30;10.55;;;;;;;;;;4904521;28;20048;-69
2023/05/11 13:02:05;;;;;;;15.45;11.23;;;;;;;;;;4913302;28;20047;-68
2023/05/11 13:04:31;;;;;;;14.25;10.73;;;;;;;;;;4934409;28;20042;-70
2023/05/11 13:06:57;;;;;;;16.00;11.73;;;;;;;;;;4941665;28;20031;-70
2023/05/11 13:09:26;;;;;;;15.07;11.85;;;;;;;;;;4929024;28;20047;-68
2023/05/11 13:12:06;;;;;;;15.55;11.63;;;;;;;;;;4931887;28;20038;-70
2023/05/11 13:14:32;;;;;;;15.80;11.80;;;;;;;;;;4911115;28;20063;-70
2023/05/11 13:16:57;;;;;;;15.88;11.85;;;;;;;;;;4927811;28;20305;-68
2023/05/11 13:19:30;;;;;;;16.30;12.88;;;;;;;;;;4932331;28;20032;-67
2023/05/11 13:21:56;;;;;;;11.88;9.23;;;;;;;;;;4924373;28;20050;-67
2023/05/11 13:24:23;;;;;;;14.45;11.00;;;;;;;;;;4942150;28;20060;-66
2023/05/11 13:26:50;;;;;;;16.55;11.95;;;;;;;;;;4936496;28;20042;-67
2023/05/11 13:29:15;;;;;;;15.57;11.88;;;;;;;;;;4958216;28;20217;-65
2023/05/11 13:31:46;;;;;;;14.98;10.95;;;;;;;;;;4956906;28;20027;-67
2023/05/11 13:35:25;;;;;;;10.55;8.05;;;;;;;;;;4943828;28;20026;-66
2023/05/11 13:42:10;;;;;;;;;;;;;;;;;;4900670;29;20065;-66
2023/05/11 13:44:35;;;;;;;12.30;9.93;;;;;;;;;;4909195;29;19911;-67
2023/05/11 13:47:01;;;;;;;12.27;8.80;;;;;;;;;;4929204;29;20027;-70
2023/05/11 13:49:26;;;;;;;9.95;8.10;;;;;;;;;;4932127;28;20134;-70
2023/05/11 13:51:54;;;;;;;13.15;9.02;;;;;;;;;;4937821;29;20032;-68
2023/05/11 13:54:20;;;;;;;12.63;8.27;;;;;;;;;;4930577;29;20031;-71
2023/05/11 13:56:46;;;;;;;13.88;9.57;;;;;;;;;;4927126;29;20025;-71
2023/05/11 13:59:11;;;;;;;12.32;9.00;;;;;;;;;;4924818;29;20036;-71
2023/05/11 14:01:37;;;;;;;10.82;7.90;;;;;;;;;;4936188;29;20028;-67
2023/05/11 14:04:03;;;;;;;11.43;8.82;;;;;;;;;;4932219;29;20027;-69
2023/05/11 14:06:33;;;;;;;12.60;8.95;;;;;;;;;;4928507;28;20055;-71
2023/05/11 14:08:58;;;;;;;13.37;10.17;;;;;;;;;;4925258;29;20047;-71
2023/05/11 14:11:24;;;;;;;13.63;8.88;;;;;;;;;;4925465;29;20027;-69
2023/05/11 14:13:50;;;;;;;11.35;8.82;;;;;;;;;;4925130;29;20099;-70
2023/05/11 14:16:17;;;;;;;10.80;8.80;;;;;;;;;;4925471;29;20609;-70
2023/05/11 14:18:43;;;;;;;11.52;8.88;;;;;;;;;;4926147;29;20020;-70
2023/05/11 14:21:08;;;;;;;10.15;8.10;;;;;;;;;;4924372;29;20036;-69
2023/05/11 14:23:33;;;;;;;11.48;9.30;;;;;;;;;;4926065;28;20484;-71
2023/05/11 14:25:59;;;;;;;11.35;8.40;;;;;;;;;;4927360;29;20056;-69
2023/05/11 14:28:25;;;;;;;11.23;8.35;;;;;;;;;;4923830;29;20123;-69
2023/05/11 14:30:50;;;;;;;9.85;7.63;;;;;;;;;;4924087;29;20624;-72
2023/05/11 14:33:15;;;;;;;10.70;8.68;;;;;;;;;;4929638;29;20031;-71
2023/05/11 14:35:42;;;;;;;9.95;8.35;;;;;;;;;;4929725;29;20020;-68
2023/05/11 14:38:07;;;;;;;10.05;8.50;;;;;;;;;;4926124;29;20463;-68
2023/05/11 14:40:33;;;;;;;11.18;8.88;;;;;;;;;;4948410;28;20148;-71
2023/05/11 14:42:58;;;;;;;11.57;9.65;;;;;;;;;;4926977;29;20473;-72
2023/05/11 14:45:23;;;;;;;11.55;8.80;;;;;;;;;;4928465;29;20038;-71
2023/05/11 14:47:49;;;;;;;11.82;9.50;;;;;;;;;;4924820;29;20496;-71
2023/05/11 14:50:16;;;;;;;11.57;8.90;;;;;;;;;;4927955;29;20042;-71
2023/05/11 14:52:41;;;;;;;11.38;9.13;;;;;;;;;;4926342;29;20024;-70